sensor_id;sensor_type;location;lat;lon;timestamp;pressure;altitude;pressure_sealevel;temperature;humidity
64354;BME280;50681;53.334;-6.536;2022-07-24T00:02:12;100151.41;;;18.75;100.00
64354;BME280;50681;53.334;-6.536;2022-07-24T00:04:37;100163.66;;;18.81;100.00
64354;BME280;50681;53.334;-6.536;2022-07-24T00:07:02;100171.25;;;18.88;100.00
64354;BME280;50681;53.334;-6.536;2022-07-24T00:09:28;100157.75;;;18.79;100.00
64354;BME280;50681;53.334;-6.536;2022-07-24T00:11:53;100171.25;;;18.88;100.00
64354;BME280;50681;53.334;-6.536;2022-07-24T00:14:19;100155.38;;;18.78;100.00
64354;BME280;50681;53.334;-6.536;2022-07-24T00:16:44;100150.69;;;18.78;100.00
64354;BME280;50681;53.334;-6.536;2022-07-24T00:19:10;100167.66;;;18.84;100.00
64354;BME280;50681;53.334;-6.536;2022-07-24T00:21:35;100157.78;;;18.63;100.00
64354;BME280;50681;53.334;-6.536;2022-07-24T00:24:01;100148.06;;;18.66;100.00
64354;BME280;50681;53.334;-6.536;2022-07-24T00:26:26;100178.47;;;18.80;100.00
64354;BME280;50681;53.334;-6.536;2022-07-24T00:28:52;100161.47;;;18.71;100.00
64354;BME280;50681;53.334;-6.536;2022-07-24T00:31:18;100185.19;;;18.83;100.00
64354;BME280;50681;53.334;-6.536;2022-07-24T00:33:44;100185.38;;;18.90;100.00
64354;BME280;50681;53.334;-6.536;2022-07-24T00:36:10;100175.47;;;18.86;100.00
64354;BME280;50681;53.334;-6.536;2022-07-24T00:38:35;100174.16;;;18.79;100.00
64354;BME280;50681;53.334;-6.536;2022-07-24T00:41:01;100183.34;;;18.87;100.00
64354;BME280;50681;53.334;-6.536;2022-07-24T00:43:27;100164.03;;;18.80;100.00
64354;BME280;50681;53.334;-6.536;2022-07-24T00:45:52;100170.00;;;18.86;100.00
64354;BME280;50681;53.334;-6.536;2022-07-24T00:48:18;100167.97;;;18.83;100.00
64354;BME280;50681;53.334;-6.536;2022-07-24T00:50:43;100164.47;;;18.82;100.00
64354;BME280;50681;53.334;-6.536;2022-07-24T00:53:09;100168.16;;;18.90;100.00
64354;BME280;50681;53.334;-6.536;2022-07-24T00:55:35;100172.84;;;18.89;100.00
64354;BME280;50681;53.334;-6.536;2022-07-24T00:58:02;100173.56;;;18.86;100.00
64354;BME280;50681;53.334;-6.536;2022-07-24T01:00:28;100160.59;;;18.83;100.00
64354;BME280;50681;53.334;-6.536;2022-07-24T01:02:53;100153.81;;;18.77;100.00
64354;BME280;50681;53.334;-6.536;2022-07-24T01:05:19;100147.53;;;18.76;100.00
64354;BME280;50681;53.334;-6.536;2022-07-24T01:07:45;100159.78;;;18.83;100.00
64354;BME280;50681;53.334;-6.536;2022-07-24T01:10:10;100157.31;;;18.77;100.00
64354;BME280;50681;53.334;-6.536;2022-07-24T01:12:38;100181.22;;;18.80;100.00
64354;BME280;50681;53.334;-6.536;2022-07-24T01:15:06;100168.34;;;18.81;100.00
64354;BME280;50681;53.334;-6.536;2022-07-24T01:17:33;100171.69;;;18.74;100.00
64354;BME280;50681;53.334;-6.536;2022-07-24T01:19:59;100168.34;;;18.81;100.00
64354;BME280;50681;53.334;-6.536;2022-07-24T01:22:26;100164.03;;;18.80;100.00
64354;BME280;50681;53.334;-6.536;2022-07-24T01:24:51;100157.06;;;18.66;100.00
64354;BME280;50681;53.334;-6.536;2022-07-24T01:27:17;100151.94;;;18.65;100.00
64354;BME280;50681;53.334;-6.536;2022-07-24T01:29:43;100167.41;;;18.57;100.00
64354;BME280;50681;53.334;-6.536;2022-07-24T01:32:08;100172.78;;;18.54;100.00
64354;BME280;50681;53.334;-6.536;2022-07-24T01:34:34;100169.25;;;18.37;100.00
64354;BME280;50681;53.334;-6.536;2022-07-24T01:36:59;100176.19;;;18.34;100.00
64354;BME280;50681;53.334;-6.536;2022-07-24T01:39:25;100170.09;;;18.09;100.00
64354;BME280;50681;53.334;-6.536;2022-07-24T01:41:50;100172.50;;;17.98;100.00
64354;BME280;50681;53.334;-6.536;2022-07-24T01:44:16;100189.13;;;17.93;100.00
64354;BME280;50681;53.334;-6.536;2022-07-24T01:46:41;100185.06;;;17.87;100.00
64354;BME280;50681;53.334;-6.536;2022-07-24T01:49:08;100175.09;;;17.78;100.00
64354;BME280;50681;53.334;-6.536;2022-07-24T01:51:33;100180.09;;;17.76;100.00
64354;BME280;50681;53.334;-6.536;2022-07-24T01:53:59;100179.44;;;17.67;100.00
64354;BME280;50681;53.334;-6.536;2022-07-24T01:56:24;100188.69;;;17.62;100.00
64354;BME280;50681;53.334;-6.536;2022-07-24T01:58:50;100170.16;;;17.56;100.00
64354;BME280;50681;53.334;-6.536;2022-07-24T02:01:15;100166.56;;;17.39;100.00
64354;BME280;50681;53.334;-6.536;2022-07-24T02:03:40;100174.66;;;17.36;100.00
64354;BME280;50681;53.334;-6.536;2022-07-24T02:06:06;100182.94;;;17.39;100.00
64354;BME280;50681;53.334;-6.536;2022-07-24T02:08:32;100197.72;;;17.38;100.00
64354;BME280;50681;53.334;-6.536;2022-07-24T02:10:57;100199.22;;;17.36;100.00
64354;BME280;50681;53.334;-6.536;2022-07-24T02:13:23;100178.88;;;17.21;100.00
64354;BME280;50681;53.334;-6.536;2022-07-24T02:15:52;100180.00;;;17.19;100.00
64354;BME280;50681;53.334;-6.536;2022-07-24T02:18:18;100180.25;;;17.14;100.00
64354;BME280;50681;53.334;-6.536;2022-07-24T02:20:46;100181.38;;;17.13;100.00
64354;BME280;50681;53.334;-6.536;2022-07-24T02:23:11;100174.34;;;17.12;100.00
64354;BME280;50681;53.334;-6.536;2022-07-24T02:25:43;100168.66;;;17.05;100.00
64354;BME280;50681;53.334;-6.536;2022-07-24T02:28:09;100182.53;;;17.12;100.00
64354;BME280;50681;53.334;-6.536;2022-07-24T02:30:34;100174.56;;;17.07;100.00
64354;BME280;50681;53.334;-6.536;2022-07-24T02:33:00;100189.91;;;17.12;100.00
64354;BME280;50681;53.334;-6.536;2022-07-24T02:35:25;100171.50;;;16.96;100.00
64354;BME280;50681;53.334;-6.536;2022-07-24T02:37:51;100179.47;;;17.01;100.00
64354;BME280;50681;53.334;-6.536;2022-07-24T02:40:16;100192.06;;;17.06;100.00
64354;BME280;50681;53.334;-6.536;2022-07-24T02:42:42;100185.47;;;17.07;100.00
64354;BME280;50681;53.334;-6.536;2022-07-24T02:45:08;100191.72;;;17.20;100.00
64354;BME280;50681;53.334;-6.536;2022-07-24T02:47:35;100180.59;;;17.13;100.00
64354;BME280;50681;53.334;-6.536;2022-07-24T02:50:01;100190.22;;;17.23;100.00
64354;BME280;50681;53.334;-6.536;2022-07-24T02:52:27;100192.28;;;17.26;100.00
64354;BME280;50681;53.334;-6.536;2022-07-24T02:54:53;100169.56;;;17.22;100.00
64354;BME280;50681;53.334;-6.536;2022-07-24T02:57:18;100179.53;;;17.30;100.00
64354;BME280;50681;53.334;-6.536;2022-07-24T02:59:44;100182.38;;;17.33;100.00
64354;BME280;50681;53.334;-6.536;2022-07-24T03:02:15;100177.25;;;17.32;100.00
64354;BME280;50681;53.334;-6.536;2022-07-24T03:04:40;100166.03;;;17.33;100.00
64354;BME280;50681;53.334;-6.536;2022-07-24T03:07:06;100161.25;;;17.30;100.00
64354;BME280;50681;53.334;-6.536;2022-07-24T03:09:31;100171.31;;;17.42;100.00
64354;BME280;50681;53.334;-6.536;2022-07-24T03:11:56;100172.22;;;17.46;100.00
64354;BME280;50681;53.334;-6.536;2022-07-24T03:14:22;100185.31;;;17.53;100.00
64354;BME280;50681;53.334;-6.536;2022-07-24T03:16:47;100159.94;;;17.53;100.00
64354;BME280;50681;53.334;-6.536;2022-07-24T03:19:13;100173.78;;;17.60;100.00
64354;BME280;50681;53.334;-6.536;2022-07-24T03:21:38;100163.91;;;17.55;100.00
64354;BME280;50681;53.334;-6.536;2022-07-24T03:24:04;100155.59;;;17.52;100.00
64354;BME280;50681;53.334;-6.536;2022-07-24T03:26:29;100153.69;;;17.52;100.00
64354;BME280;50681;53.334;-6.536;2022-07-24T03:28:54;100163.47;;;17.53;100.00
64354;BME280;50681;53.334;-6.536;2022-07-24T03:31:20;100168.00;;;17.61;100.00
64354;BME280;50681;53.334;-6.536;2022-07-24T03:33:45;100161.03;;;17.64;100.00
64354;BME280;50681;53.334;-6.536;2022-07-24T03:36:11;100160.59;;;17.62;100.00
64354;BME280;50681;53.334;-6.536;2022-07-24T03:38:38;100163.06;;;17.67;100.00
64354;BME280;50681;53.334;-6.536;2022-07-24T03:41:04;100164.91;;;17.63;100.00
64354;BME280;50681;53.334;-6.536;2022-07-24T03:43:29;100157.66;;;17.55;100.00
64354;BME280;50681;53.334;-6.536;2022-07-24T03:45:55;100155.16;;;17.49;100.00
64354;BME280;50681;53.334;-6.536;2022-07-24T03:48:20;100145.88;;;17.38;100.00
64354;BME280;50681;53.334;-6.536;2022-07-24T03:50:46;100158.13;;;17.44;100.00
64354;BME280;50681;53.334;-6.536;2022-07-24T03:53:11;100141.78;;;17.32;100.00
64354;BME280;50681;53.334;-6.536;2022-07-24T03:55:37;100146.09;;;17.33;100.00
64354;BME280;50681;53.334;-6.536;2022-07-24T03:58:02;100166.25;;;17.28;100.00
64354;BME280;50681;53.334;-6.536;2022-07-24T04:00:28;100170.66;;;17.33;100.00
64354;BME280;50681;53.334;-6.536;2022-07-24T04:02:53;100165.69;;;17.23;100.00
64354;BME280;50681;53.334;-6.536;2022-07-24T04:05:19;100174.44;;;17.28;100.00
64354;BME280;50681;53.334;-6.536;2022-07-24T04:07:44;100156.50;;;17.15;100.00
64354;BME280;50681;53.334;-6.536;2022-07-24T04:10:10;100170.69;;;17.21;100.00
64354;BME280;50681;53.334;-6.536;2022-07-24T04:12:36;100174.56;;;17.19;100.00
64354;BME280;50681;53.334;-6.536;2022-07-24T04:15:02;100160.03;;;17.03;100.00
64354;BME280;50681;53.334;-6.536;2022-07-24T04:17:27;100167.88;;;17.04;100.00
64354;BME280;50681;53.334;-6.536;2022-07-24T04:19:53;100174.03;;;17.01;100.00
64354;BME280;50681;53.334;-6.536;2022-07-24T04:22:18;100174.22;;;16.96;100.00
64354;BME280;50681;53.334;-6.536;2022-07-24T04:24:43;100171.38;;;16.93;100.00
64354;BME280;50681;53.334;-6.536;2022-07-24T04:27:09;100170.91;;;16.90;100.00
64354;BME280;50681;53.334;-6.536;2022-07-24T04:29:34;100175.03;;;16.97;100.00
64354;BME280;50681;53.334;-6.536;2022-07-24T04:32:00;100176.50;;;16.94;100.00
64354;BME280;50681;53.334;-6.536;2022-07-24T04:34:25;100179.53;;;16.93;100.00
64354;BME280;50681;53.334;-6.536;2022-07-24T04:36:52;100176.63;;;16.98;100.00
64354;BME280;50681;53.334;-6.536;2022-07-24T04:39:17;100162.50;;;16.96;100.00
64354;BME280;50681;53.334;-6.536;2022-07-24T04:41:44;100177.50;;;17.14;100.00
64354;BME280;50681;53.334;-6.536;2022-07-24T04:44:09;100182.50;;;17.25;100.00
64354;BME280;50681;53.334;-6.536;2022-07-24T04:46:35;100173.75;;;17.31;100.00
64354;BME280;50681;53.334;-6.536;2022-07-24T04:49:00;100176.25;;;17.37;100.00
64354;BME280;50681;53.334;-6.536;2022-07-24T04:51:26;100188.16;;;17.44;100.00
64354;BME280;50681;53.334;-6.536;2022-07-24T04:53:51;100177.59;;;17.43;100.00
64354;BME280;50681;53.334;-6.536;2022-07-24T04:56:20;100164.03;;;17.46;100.00
64354;BME280;50681;53.334;-6.536;2022-07-24T04:58:46;100155.19;;;17.37;100.00
64354;BME280;50681;53.334;-6.536;2022-07-24T05:01:17;100164.72;;;17.43;100.00
64354;BME280;50681;53.334;-6.536;2022-07-24T05:03:42;100158.28;;;17.36;100.00
64354;BME280;50681;53.334;-6.536;2022-07-24T05:06:08;100159.50;;;17.38;100.00
64354;BME280;50681;53.334;-6.536;2022-07-24T05:08:33;100154.94;;;17.42;100.00
64354;BME280;50681;53.334;-6.536;2022-07-24T05:10:59;100155.06;;;17.46;100.00
64354;BME280;50681;53.334;-6.536;2022-07-24T05:13:26;100155.41;;;17.44;100.00
64354;BME280;50681;53.334;-6.536;2022-07-24T05:15:52;100164.69;;;17.56;100.00
64354;BME280;50681;53.334;-6.536;2022-07-24T05:18:18;100147.19;;;17.57;100.00
64354;BME280;50681;53.334;-6.536;2022-07-24T05:20:44;100155.13;;;17.62;100.00
64354;BME280;50681;53.334;-6.536;2022-07-24T05:23:09;100139.28;;;17.39;100.00
64354;BME280;50681;53.334;-6.536;2022-07-24T05:25:35;100158.13;;;17.44;100.00
64354;BME280;50681;53.334;-6.536;2022-07-24T05:28:00;100134.19;;;17.25;100.00
64354;BME280;50681;53.334;-6.536;2022-07-24T05:30:26;100151.56;;;17.33;100.00
64354;BME280;50681;53.334;-6.536;2022-07-24T05:32:52;100130.00;;;17.15;100.00
64354;BME280;50681;53.334;-6.536;2022-07-24T05:35:18;100161.69;;;17.32;100.00
64354;BME280;50681;53.334;-6.536;2022-07-24T05:37:43;100137.94;;;17.21;100.00
64354;BME280;50681;53.334;-6.536;2022-07-24T05:40:10;100159.06;;;17.36;100.00
64354;BME280;50681;53.334;-6.536;2022-07-24T05:42:36;100138.84;;;17.25;100.00
64354;BME280;50681;53.334;-6.536;2022-07-24T05:45:03;100139.38;;;17.43;100.00
64354;BME280;50681;53.334;-6.536;2022-07-24T05:47:28;100139.78;;;17.57;100.00
64354;BME280;50681;53.334;-6.536;2022-07-24T05:50:14;100131.63;;;17.73;100.00
64354;BME280;50681;53.334;-6.536;2022-07-24T05:52:40;100126.09;;;17.70;100.00
64354;BME280;50681;53.334;-6.536;2022-07-24T05:55:07;100128.22;;;17.76;100.00
64354;BME280;50681;53.334;-6.536;2022-07-24T05:57:32;100130.25;;;17.80;100.00
64354;BME280;50681;53.334;-6.536;2022-07-24T05:59:58;100122.16;;;17.83;100.00
64354;BME280;50681;53.334;-6.536;2022-07-24T06:02:24;100114.56;;;17.76;100.00
64354;BME280;50681;53.334;-6.536;2022-07-24T06:04:49;100113.78;;;17.76;100.00
64354;BME280;50681;53.334;-6.536;2022-07-24T06:07:15;100124.53;;;17.85;100.00
64354;BME280;50681;53.334;-6.536;2022-07-24T06:09:40;100118.19;;;17.81;100.00
64354;BME280;50681;53.334;-6.536;2022-07-24T06:12:06;100124.97;;;17.87;100.00
64354;BME280;50681;53.334;-6.536;2022-07-24T06:14:32;100114.06;;;17.87;100.00
64354;BME280;50681;53.334;-6.536;2022-07-24T06:16:58;100117.41;;;17.96;100.00
64354;BME280;50681;53.334;-6.536;2022-07-24T06:19:24;100122.66;;;18.01;100.00
64354;BME280;50681;53.334;-6.536;2022-07-24T06:21:49;100109.00;;;18.01;100.00
64354;BME280;50681;53.334;-6.536;2022-07-24T06:24:15;100104.44;;;18.05;100.00
64354;BME280;50681;53.334;-6.536;2022-07-24T06:26:40;100114.13;;;18.19;100.00
64354;BME280;50681;53.334;-6.536;2022-07-24T06:29:06;100098.00;;;18.14;100.00
64354;BME280;50681;53.334;-6.536;2022-07-24T06:31:31;100078.53;;;18.15;100.00
64354;BME280;50681;53.334;-6.536;2022-07-24T06:33:57;100098.03;;;18.30;100.00
64354;BME280;50681;53.334;-6.536;2022-07-24T06:36:23;100101.69;;;18.38;100.00
64354;BME280;50681;53.334;-6.536;2022-07-24T06:38:48;100101.97;;;18.32;100.00
64354;BME280;50681;53.334;-6.536;2022-07-24T06:41:14;100103.66;;;18.37;100.00
64354;BME280;50681;53.334;-6.536;2022-07-24T06:43:39;100109.72;;;18.30;100.00
64354;BME280;50681;53.334;-6.536;2022-07-24T06:46:05;100131.78;;;18.38;100.00
64354;BME280;50681;53.334;-6.536;2022-07-24T06:48:30;100108.31;;;18.36;100.00
64354;BME280;50681;53.334;-6.536;2022-07-24T06:50:56;100102.94;;;18.40;100.00
64354;BME280;50681;53.334;-6.536;2022-07-24T06:53:21;100093.34;;;18.46;100.00
64354;BME280;50681;53.334;-6.536;2022-07-24T06:55:47;100090.13;;;18.60;100.00
64354;BME280;50681;53.334;-6.536;2022-07-24T06:58:20;100101.84;;;18.77;100.00
64354;BME280;50681;53.334;-6.536;2022-07-24T07:00:47;100082.69;;;18.77;100.00
64354;BME280;50681;53.334;-6.536;2022-07-24T07:03:12;100087.59;;;18.87;100.00
64354;BME280;50681;53.334;-6.536;2022-07-24T07:05:38;100091.13;;;19.04;100.00
64354;BME280;50681;53.334;-6.536;2022-07-24T07:08:03;100087.38;;;19.12;100.00
64354;BME280;50681;53.334;-6.536;2022-07-24T07:10:29;100090.72;;;19.21;100.00
64354;BME280;50681;53.334;-6.536;2022-07-24T07:12:55;100083.94;;;19.15;100.00
64354;BME280;50681;53.334;-6.536;2022-07-24T07:15:20;100071.69;;;19.09;100.00
64354;BME280;50681;53.334;-6.536;2022-07-24T07:17:46;100081.34;;;19.22;100.00
64354;BME280;50681;53.334;-6.536;2022-07-24T07:20:12;100087.88;;;19.37;100.00
64354;BME280;50681;53.334;-6.536;2022-07-24T07:22:39;100084.09;;;19.42;100.00
64354;BME280;50681;53.334;-6.536;2022-07-24T07:25:06;100100.78;;;19.76;100.00
64354;BME280;50681;53.334;-6.536;2022-07-24T07:27:32;100096.44;;;19.95;100.00
64354;BME280;50681;53.334;-6.536;2022-07-24T07:29:58;100101.13;;;20.18;100.00
64354;BME280;50681;53.334;-6.536;2022-07-24T07:32:23;100100.53;;;20.28;100.00
64354;BME280;50681;53.334;-6.536;2022-07-24T07:34:49;100086.94;;;20.35;100.00
64354;BME280;50681;53.334;-6.536;2022-07-24T07:37:15;100092.31;;;20.55;100.00
64354;BME280;50681;53.334;-6.536;2022-07-24T07:39:41;100086.09;;;20.58;100.00
64354;BME280;50681;53.334;-6.536;2022-07-24T07:42:06;100077.56;;;20.63;100.00
64354;BME280;50681;53.334;-6.536;2022-07-24T07:44:32;100093.38;;;20.74;100.00
64354;BME280;50681;53.334;-6.536;2022-07-24T07:46:57;100084.06;;;20.78;100.00
64354;BME280;50681;53.334;-6.536;2022-07-24T07:49:23;100097.00;;;20.78;100.00
64354;BME280;50681;53.334;-6.536;2022-07-24T07:51:48;100073.66;;;20.64;100.00
64354;BME280;50681;53.334;-6.536;2022-07-24T07:54:18;100070.41;;;20.59;100.00
64354;BME280;50681;53.334;-6.536;2022-07-24T07:56:43;100098.28;;;20.61;100.00
64354;BME280;50681;53.334;-6.536;2022-07-24T07:59:09;100092.38;;;20.59;100.00
64354;BME280;50681;53.334;-6.536;2022-07-24T08:01:35;100069.38;;;20.40;100.00
64354;BME280;50681;53.334;-6.536;2022-07-24T08:04:01;100074.84;;;20.40;100.00
64354;BME280;50681;53.334;-6.536;2022-07-24T08:06:26;100075.16;;;20.62;100.00
64354;BME280;50681;53.334;-6.536;2022-07-24T08:08:52;100082.31;;;20.66;100.00
64354;BME280;50681;53.334;-6.536;2022-07-24T08:11:19;100061.19;;;20.70;100.00
64354;BME280;50681;53.334;-6.536;2022-07-24T08:13:44;100063.44;;;20.88;100.00
64354;BME280;50681;53.334;-6.536;2022-07-24T08:16:10;100072.69;;;21.07;100.00
64354;BME280;50681;53.334;-6.536;2022-07-24T08:18:37;100068.13;;;21.18;100.00
64354;BME280;50681;53.334;-6.536;2022-07-24T08:21:03;100058.72;;;21.19;100.00
64354;BME280;50681;53.334;-6.536;2022-07-24T08:23:29;100059.28;;;21.36;100.00
64354;BME280;50681;53.334;-6.536;2022-07-24T08:25:55;100053.44;;;21.41;100.00
64354;BME280;50681;53.334;-6.536;2022-07-24T08:28:20;100047.13;;;21.37;100.00
64354;BME280;50681;53.334;-6.536;2022-07-24T08:30:49;100058.75;;;21.61;100.00
64354;BME280;50681;53.334;-6.536;2022-07-24T08:33:15;100063.09;;;21.62;100.00
64354;BME280;50681;53.334;-6.536;2022-07-24T08:35:40;100044.31;;;21.64;100.00
64354;BME280;50681;53.334;-6.536;2022-07-24T08:38:06;100033.78;;;21.73;100.00
64354;BME280;50681;53.334;-6.536;2022-07-24T08:40:37;100036.72;;;21.95;100.00
64354;BME280;50681;53.334;-6.536;2022-07-24T08:43:05;100043.00;;;21.92;100.00
64354;BME280;50681;53.334;-6.536;2022-07-24T08:45:35;100063.13;;;22.03;100.00
64354;BME280;50681;53.334;-6.536;2022-07-24T08:48:06;100048.66;;;22.13;100.00
64354;BME280;50681;53.334;-6.536;2022-07-24T08:50:33;100027.81;;;22.09;100.00
64354;BME280;50681;53.334;-6.536;2022-07-24T08:52:59;100021.06;;;21.99;100.00
64354;BME280;50681;53.334;-6.536;2022-07-24T08:55:27;100033.75;;;22.14;100.00
64354;BME280;50681;53.334;-6.536;2022-07-24T08:57:55;100027.53;;;22.25;100.00
64354;BME280;50681;53.334;-6.536;2022-07-24T09:00:24;100019.66;;;22.20;100.00
64354;BME280;50681;53.334;-6.536;2022-07-24T09:02:50;100017.19;;;22.07;100.00
64354;BME280;50681;53.334;-6.536;2022-07-24T09:05:16;99988.78;;;21.88;100.00
64354;BME280;50681;53.334;-6.536;2022-07-24T09:07:42;100000.56;;;21.89;100.00
64354;BME280;50681;53.334;-6.536;2022-07-24T09:10:13;99999.38;;;21.86;100.00
64354;BME280;50681;53.334;-6.536;2022-07-24T09:12:44;99995.16;;;22.00;100.00
64354;BME280;50681;53.334;-6.536;2022-07-24T09:15:16;99989.34;;;22.09;100.00
64354;BME280;50681;53.334;-6.536;2022-07-24T09:17:53;100001.66;;;22.33;100.00
64354;BME280;50681;53.334;-6.536;2022-07-24T09:20:20;99973.41;;;22.36;100.00
64354;BME280;50681;53.334;-6.536;2022-07-24T09:22:46;100000.28;;;22.57;100.00
64354;BME280;50681;53.334;-6.536;2022-07-24T09:27:51;99988.00;;;22.44;100.00
64354;BME280;50681;53.334;-6.536;2022-07-24T09:32:56;99979.06;;;22.61;100.00
64354;BME280;50681;53.334;-6.536;2022-07-24T09:35:24;99957.53;;;22.82;100.00
64354;BME280;50681;53.334;-6.536;2022-07-24T09:37:54;99954.03;;;22.99;100.00
64354;BME280;50681;53.334;-6.536;2022-07-24T09:40:20;99951.31;;;23.03;100.00
64354;BME280;50681;53.334;-6.536;2022-07-24T09:42:46;99951.00;;;23.30;100.00
64354;BME280;50681;53.334;-6.536;2022-07-24T09:45:12;99963.19;;;23.25;100.00
64354;BME280;50681;53.334;-6.536;2022-07-24T09:47:38;99956.50;;;23.33;100.00
64354;BME280;50681;53.334;-6.536;2022-07-24T09:50:14;99959.28;;;23.55;100.00
64354;BME280;50681;53.334;-6.536;2022-07-24T09:52:40;99951.84;;;23.70;100.00
64354;BME280;50681;53.334;-6.536;2022-07-24T09:55:19;99935.28;;;23.67;100.00
64354;BME280;50681;53.334;-6.536;2022-07-24T09:57:45;99932.16;;;23.68;100.00
64354;BME280;50681;53.334;-6.536;2022-07-24T10:00:12;99943.16;;;23.57;100.00
64354;BME280;50681;53.334;-6.536;2022-07-24T10:02:37;99922.69;;;23.33;100.00
64354;BME280;50681;53.334;-6.536;2022-07-24T10:05:03;99930.94;;;23.37;100.00
64354;BME280;50681;53.334;-6.536;2022-07-24T10:07:30;99926.63;;;23.43;100.00
64354;BME280;50681;53.334;-6.536;2022-07-24T10:09:56;99928.59;;;23.68;100.00
64354;BME280;50681;53.334;-6.536;2022-07-24T10:12:24;99927.00;;;23.74;100.00
64354;BME280;50681;53.334;-6.536;2022-07-24T10:14:53;99923.44;;;23.91;100.00
64354;BME280;50681;53.334;-6.536;2022-07-24T10:20:07;99908.41;;;24.36;100.00
64354;BME280;50681;53.334;-6.536;2022-07-24T10:22:42;99899.72;;;24.30;100.00
64354;BME280;50681;53.334;-6.536;2022-07-24T10:25:17;99909.16;;;24.40;100.00
64354;BME280;50681;53.334;-6.536;2022-07-24T10:27:46;99902.75;;;24.65;100.00
64354;BME280;50681;53.334;-6.536;2022-07-24T10:30:14;99882.91;;;24.92;100.00
64354;BME280;50681;53.334;-6.536;2022-07-24T10:32:40;99895.50;;;25.00;100.00
64354;BME280;50681;53.334;-6.536;2022-07-24T10:35:11;99889.56;;;25.02;100.00
64354;BME280;50681;53.334;-6.536;2022-07-24T10:37:56;99905.53;;;25.32;100.00
64354;BME280;50681;53.334;-6.536;2022-07-24T10:40:38;99895.47;;;25.57;100.00
64354;BME280;50681;53.334;-6.536;2022-07-24T10:53:30;99866.09;;;25.24;100.00
64354;BME280;50681;53.334;-6.536;2022-07-24T10:59:04;99852.06;;;25.01;100.00
64354;BME280;50681;53.334;-6.536;2022-07-24T11:04:01;99857.09;;;25.17;100.00
64354;BME280;50681;53.334;-6.536;2022-07-24T11:09:10;99838.47;;;25.24;100.00
64354;BME280;50681;53.334;-6.536;2022-07-24T11:11:48;99844.06;;;25.21;100.00
64354;BME280;50681;53.334;-6.536;2022-07-24T11:20:20;99820.72;;;24.73;100.00
64354;BME280;50681;53.334;-6.536;2022-07-24T11:22:50;99837.59;;;24.86;100.00
64354;BME280;50681;53.334;-6.536;2022-07-24T11:25:36;99834.38;;;24.94;100.00
64354;BME280;50681;53.334;-6.536;2022-07-24T11:30:33;99804.84;;;24.88;100.00
64354;BME280;50681;53.334;-6.536;2022-07-24T11:32:59;99814.66;;;24.96;100.00
64354;BME280;50681;53.334;-6.536;2022-07-24T11:35:29;99796.06;;;25.00;100.00
64354;BME280;50681;53.334;-6.536;2022-07-24T11:37:55;99791.75;;;24.95;100.00
64354;BME280;50681;53.334;-6.536;2022-07-24T11:40:20;99801.28;;;24.87;100.00
64354;BME280;50681;53.334;-6.536;2022-07-24T11:42:46;99794.31;;;24.68;100.00
64354;BME280;50681;53.334;-6.536;2022-07-24T11:45:11;99800.59;;;24.72;100.00
64354;BME280;50681;53.334;-6.536;2022-07-24T11:47:36;99792.66;;;24.82;100.00
64354;BME280;50681;53.334;-6.536;2022-07-24T11:50:04;99787.53;;;24.80;100.00
64354;BME280;50681;53.334;-6.536;2022-07-24T11:52:32;99784.66;;;24.94;100.00
64354;BME280;50681;53.334;-6.536;2022-07-24T11:55:12;99796.72;;;25.15;100.00
64354;BME280;50681;53.334;-6.536;2022-07-24T11:57:40;99781.56;;;25.34;100.00
64354;BME280;50681;53.334;-6.536;2022-07-24T12:00:11;99782.22;;;25.53;100.00
64354;BME280;50681;53.334;-6.536;2022-07-24T12:02:48;99784.03;;;25.67;100.00
64354;BME280;50681;53.334;-6.536;2022-07-24T12:05:24;99767.72;;;25.76;100.00
64354;BME280;50681;53.334;-6.536;2022-07-24T12:07:50;99756.84;;;25.93;100.00
64354;BME280;50681;53.334;-6.536;2022-07-24T12:10:18;99770.03;;;26.16;100.00
64354;BME280;50681;53.334;-6.536;2022-07-24T12:12:44;99767.81;;;26.35;100.00
64354;BME280;50681;53.334;-6.536;2022-07-24T12:15:12;99761.91;;;26.33;100.00
64354;BME280;50681;53.334;-6.536;2022-07-24T12:18:02;99760.53;;;26.45;100.00
64354;BME280;50681;53.334;-6.536;2022-07-24T12:23:00;99759.50;;;26.04;100.00
64354;BME280;50681;53.334;-6.536;2022-07-24T12:25:27;99746.78;;;26.10;100.00
64354;BME280;50681;53.334;-6.536;2022-07-24T12:30:37;99752.13;;;25.93;100.00
64354;BME280;50681;53.334;-6.536;2022-07-24T12:35:34;99742.38;;;25.81;100.00
64354;BME280;50681;53.334;-6.536;2022-07-24T12:38:00;99732.31;;;25.64;100.00
64354;BME280;50681;53.334;-6.536;2022-07-24T12:40:33;99730.75;;;25.63;100.00
64354;BME280;50681;53.334;-6.536;2022-07-24T12:43:07;99730.91;;;25.52;100.00
64354;BME280;50681;53.334;-6.536;2022-07-24T12:45:33;99737.00;;;25.32;100.00
64354;BME280;50681;53.334;-6.536;2022-07-24T12:48:10;99732.41;;;25.57;100.00
64354;BME280;50681;53.334;-6.536;2022-07-24T12:50:37;99715.34;;;25.27;100.00
64354;BME280;50681;53.334;-6.536;2022-07-24T12:53:05;99721.16;;;25.36;100.00
64354;BME280;50681;53.334;-6.536;2022-07-24T12:55:30;99723.84;;;25.44;100.00
64354;BME280;50681;53.334;-6.536;2022-07-24T12:58:00;99720.59;;;25.56;100.00
64354;BME280;50681;53.334;-6.536;2022-07-24T13:00:26;99722.44;;;25.66;100.00
64354;BME280;50681;53.334;-6.536;2022-07-24T13:02:52;99727.44;;;25.75;100.00
64354;BME280;50681;53.334;-6.536;2022-07-24T13:05:35;99730.00;;;25.93;100.00
64354;BME280;50681;53.334;-6.536;2022-07-24T13:08:01;99705.22;;;25.86;100.00
64354;BME280;50681;53.334;-6.536;2022-07-24T13:10:26;99707.50;;;25.91;100.00
64354;BME280;50681;53.334;-6.536;2022-07-24T13:12:51;99692.94;;;25.56;100.00
64354;BME280;50681;53.334;-6.536;2022-07-24T13:15:18;99694.78;;;25.66;100.00